Time;durP1;ratioP1;P1;durP2;ratioP2;P2;SDS_P1;SDS_P2;PMS_P1;PMS_P2;Temp;Humidity;BMP_temperature;BMP_pressure;BME280_temperature;BME280_humidity;BME280_pressure;Samples;Min_cycle;Max_cycle;Signal;HPM_P1;HPM_P2
2023/05/08 00:00:35;;;;;;;21.73;16.07;;;1.80;99.90;;;;;;12792762;23;20194;-84
2023/05/08 00:05:41;;;;;;;20.30;14.50;;;1.70;99.90;;;;;;12809287;23;20234;-84
2023/05/08 00:10:43;;;;;;;19.80;14.23;;;1.60;99.90;;;;;;12792785;23;20172;-84
2023/05/08 00:15:46;;;;;;;19.50;15.10;;;1.60;99.90;;;;;;12793437;23;20172;-84
2023/05/08 00:20:49;;;;;;;21.97;15.03;;;1.50;99.90;;;;;;12791928;23;20192;-84
2023/05/08 00:25:51;;;;;;;19.63;15.10;;;1.40;99.90;;;;;;12791914;23;20639;-84
2023/05/08 00:30:54;;;;;;;20.87;14.13;;;1.30;99.90;;;;;;12792438;23;20176;-84
2023/05/08 00:36:04;;;;;;;18.20;15.47;;;1.30;99.90;;;;;;12765132;23;20685;-84
2023/05/08 00:41:06;;;;;;;21.63;16.17;;;1.30;99.90;;;;;;12766945;23;20171;-83
2023/05/08 00:46:10;;;;;;;19.17;14.93;;;1.40;99.90;;;;;;12765698;23;20180;-84
2023/05/08 00:51:14;;;;;;;20.17;14.50;;;1.30;99.90;;;;;;12792405;23;20191;-83
2023/05/08 00:56:19;;;;;;;17.63;15.23;;;1.30;99.90;;;;;;12791102;23;20249;-84
2023/05/08 01:01:22;;;;;;;21.77;16.67;;;1.30;99.90;;;;;;12808370;23;20172;-84
2023/05/08 01:06:25;;;;;;;18.57;14.87;;;1.40;99.90;;;;;;12764551;23;20237;-84
2023/05/08 01:12:12;;;;;;;20.17;16.67;;;1.30;99.90;;;;;;12763293;23;20187;-84
2023/05/08 01:17:29;;;;;;;21.07;16.67;;;1.20;99.90;;;;;;12757183;23;20280;-84
2023/05/08 01:23:22;;;;;;;21.63;16.77;;;1.20;99.90;;;;;;12798985;23;20203;-84
2023/05/08 01:28:52;;;;;;;18.43;15.40;;;1.10;99.90;;;;;;12791017;23;20226;-84
2023/05/08 01:34:00;;;;;;;23.30;16.07;;;1.10;99.90;;;;;;12764468;23;20242;-84
2023/05/08 01:39:09;;;;;;;21.83;17.00;;;1.00;99.90;;;;;;12764020;23;20270;-84
2023/05/08 01:44:20;;;;;;;23.67;18.00;;;0.90;99.90;;;;;;12764905;23;20176;-84
2023/05/08 01:49:24;;;;;;;25.90;17.63;;;0.90;99.90;;;;;;12764296;23;20218;-84
2023/05/08 01:54:32;;;;;;;22.43;18.47;;;0.80;99.90;;;;;;12738086;23;20187;-85
2023/05/08 01:59:37;;;;;;;22.83;17.67;;;0.80;99.90;;;;;;12762881;23;20269;-85
2023/05/08 02:04:42;;;;;;;25.53;17.37;;;0.70;99.90;;;;;;12808805;23;20473;-85
2023/05/08 02:09:45;;;;;;;21.97;17.17;;;0.70;99.90;;;;;;12790346;23;20179;-85
2023/05/08 02:14:51;;;;;;;22.10;17.93;;;0.60;99.90;;;;;;12763126;23;20180;-85
2023/05/08 02:19:56;;;;;;;22.83;18.30;;;0.60;99.90;;;;;;12762872;23;20502;-84
2023/05/08 02:25:00;;;;;;;25.77;17.70;;;0.60;99.90;;;;;;12789274;23;20785;-85
2023/05/08 02:30:03;;;;;;;21.53;17.47;;;0.60;99.90;;;;;;12762922;23;20584;-84
2023/05/08 02:35:07;;;;;;;23.83;17.83;;;0.50;99.90;;;;;;12762167;23;20180;-84
2023/05/08 02:40:12;;;;;;;22.53;18.30;;;0.50;99.90;;;;;;12795218;23;20211;-84
2023/05/08 02:45:16;;;;;;;22.70;18.47;;;0.50;99.90;;;;;;12762583;23;20510;-84
2023/05/08 02:50:25;;;;;;;23.10;18.90;;;0.50;99.90;;;;;;12763552;23;20179;-85
2023/05/08 02:55:49;;;;;;;21.90;17.00;;;0.40;99.90;;;;;;12794484;23;20175;-84
2023/05/08 03:01:05;;;;;;;24.47;18.63;;;0.40;99.90;;;;;;12763384;23;20261;-84
2023/05/08 03:06:15;;;;;;;24.17;16.53;;;0.40;99.90;;;;;;12762121;23;20179;-84
2023/05/08 03:11:23;;;;;;;26.80;17.33;;;0.40;99.90;;;;;;12790137;23;20176;-84
2023/05/08 03:16:30;;;;;;;19.77;16.20;;;0.30;99.90;;;;;;12807468;23;20517;-84
2023/05/08 03:21:36;;;;;;;21.97;17.67;;;0.30;99.90;;;;;;12762176;23;20273;-84
2023/05/08 03:26:38;;;;;;;22.60;16.80;;;0.30;99.90;;;;;;12763163;23;20180;-84
2023/05/08 03:31:42;;;;;;;22.23;17.40;;;0.30;99.90;;;;;;12762014;23;20234;-84
2023/05/08 03:36:45;;;;;;;24.27;18.67;;;0.30;99.90;;;;;;12791222;23;20175;-84
2023/05/08 03:41:48;;;;;;;25.43;19.53;;;0.30;99.90;;;;;;12766226;23;20217;-84
2023/05/08 03:46:54;;;;;;;27.03;19.50;;;0.30;99.90;;;;;;12792569;23;20213;-84
2023/05/08 03:51:58;;;;;;;27.53;18.33;;;0.40;99.90;;;;;;12792844;23;20230;-84
2023/05/08 03:57:00;;;;;;;28.93;19.43;;;0.40;99.90;;;;;;12766025;23;20246;-84
2023/05/08 04:02:24;;;;;;;27.63;19.87;;;0.60;99.90;;;;;;12765269;23;20179;-84
2023/05/08 04:07:32;;;;;;;25.00;17.50;;;0.70;99.90;;;;;;12764206;23;20265;-84
2023/05/08 04:13:33;;;;;;;25.60;18.63;;;1.00;99.90;;;;;;12764935;23;20187;-83
2023/05/08 04:18:43;;;;;;;24.53;18.77;;;1.00;99.90;;;;;;12778448;23;20192;-83
2023/05/08 04:23:50;;;;;;;24.63;18.30;;;1.20;99.90;;;;;;12793465;23;20223;-83
2023/05/08 04:28:53;;;;;;;29.93;21.37;;;1.40;99.90;;;;;;12809021;23;20167;-84
2023/05/08 04:33:56;;;;;;;31.07;22.97;;;1.90;99.90;;;;;;12763564;23;20250;-86
2023/05/08 04:38:59;;;;;;;29.67;22.77;;;2.30;99.90;;;;;;12791280;23;20184;-84
2023/05/08 04:44:04;;;;;;;36.77;28.03;;;2.50;99.90;;;;;;12763735;23;20251;-85
2023/05/08 04:49:06;;;;;;;36.47;27.27;;;2.80;99.90;;;;;;12763168;23;20180;-85
2023/05/08 04:54:10;;;;;;;16.93;11.40;;;3.10;99.90;;;;;;12761943;23;20180;-87
2023/05/08 04:59:12;;;;;;;19.07;10.83;;;3.60;99.90;;;;;;12765171;23;20192;-88
2023/05/08 05:04:18;;;;;;;15.10;10.63;;;4.60;99.90;;;;;;12763270;23;20215;-87
2023/05/08 05:09:20;;;;;;;17.03;11.53;;;5.00;99.90;;;;;;12790536;23;20513;-88
2023/05/08 05:14:23;;;;;;;22.70;12.13;;;5.40;99.90;;;;;;12763295;23;20180;-88
2023/05/08 05:19:26;;;;;;;16.57;12.60;;;5.80;99.90;;;;;;12763792;23;20316;-87
2023/05/08 05:24:29;;;;;;;16.47;11.27;;;6.00;99.90;;;;;;12763864;23;20238;-87
2023/05/08 05:29:32;;;;;;;11.07;7.53;;;6.30;99.90;;;;;;12791201;23;20241;-88
2023/05/08 05:34:35;;;;;;;11.73;7.73;;;;;;;;;;12764192;23;20753;-87
2023/05/08 05:39:38;;;;;;;9.97;7.40;;;7.00;99.90;;;;;;12764186;23;20197;-87
2023/05/08 05:44:41;;;;;;;9.90;6.80;;;7.40;99.90;;;;;;12764226;23;20233;-87
2023/05/08 05:49:46;;;;;;;21.50;7.83;;;7.70;99.90;;;;;;12762572;23;20629;-83
2023/05/08 05:54:49;;;;;;;9.57;6.93;;;7.80;99.90;;;;;;12787825;23;20189;-87
2023/05/08 05:59:52;;;;;;;10.30;7.40;;;8.20;99.90;;;;;;12763758;23;20241;-87
2023/05/08 06:04:58;;;;;;;8.67;5.87;;;8.40;99.90;;;;;;12764156;23;20637;-88
2023/05/08 06:10:01;;;;;;;5.17;4.50;;;8.60;99.90;;;;;;12790972;23;20178;-81
2023/05/08 06:15:04;;;;;;;6.13;5.43;;;9.00;99.90;;;;;;12761582;23;20217;-81
2023/05/08 06:20:07;;;;;;;4.97;3.83;;;9.40;99.90;;;;;;12785150;23;20207;-81
2023/05/08 06:25:10;;;;;;;7.03;4.60;;;9.50;99.90;;;;;;12759902;23;20176;-81
2023/05/08 06:30:13;;;;;;;7.67;5.67;;;9.80;99.90;;;;;;12788407;23;20187;-81
2023/05/08 06:35:17;;;;;;;7.50;4.07;;;9.90;99.90;;;;;;12788117;23;20187;-81
2023/05/08 06:40:19;;;;;;;7.33;4.17;;;10.30;99.90;;;;;;12787290;23;20200;-81
2023/05/08 06:45:22;;;;;;;6.33;4.50;;;10.50;99.90;;;;;;12786560;23;20210;-81
2023/05/08 06:50:25;;;;;;;3.93;2.80;;;10.70;99.90;;;;;;12788487;23;20199;-81
2023/05/08 06:55:27;;;;;;;4.67;4.00;;;10.90;99.90;;;;;;12788201;23;20176;-81
2023/05/08 07:00:31;;;;;;;5.03;3.53;;;11.10;99.90;;;;;;12760977;23;20196;-81
2023/05/08 07:05:33;;;;;;;11.63;5.07;;;11.40;99.90;;;;;;12761253;23;20251;-81
2023/05/08 07:10:36;;;;;;;4.07;3.47;;;11.70;99.90;;;;;;12788598;23;20219;-81
2023/05/08 07:15:38;;;;;;;5.13;3.47;;;11.90;99.30;;;;;;12790835;23;20285;-81
2023/05/08 07:20:41;;;;;;;5.77;3.97;;;12.00;98.20;;;;;;12763065;23;20545;-81
2023/05/08 07:25:43;;;;;;;3.47;3.03;;;12.20;98.80;;;;;;12790180;23;20172;-81
2023/05/08 07:30:46;;;;;;;3.43;3.13;;;12.30;96.10;;;;;;12789965;23;20575;-81
2023/05/08 07:35:48;;;;;;;6.27;3.87;;;12.60;96.50;;;;;;12791335;23;20226;-81
2023/05/08 07:40:55;;;;;;;5.60;3.77;;;12.70;94.50;;;;;;12792134;23;20581;-81
2023/05/08 07:45:58;;;;;;;3.90;3.50;;;12.80;94.60;;;;;;12789714;23;20258;-80
2023/05/08 07:51:01;;;;;;;4.20;3.40;;;13.10;95.60;;;;;;12764859;23;20184;-81
2023/05/08 07:56:04;;;;;;;4.03;2.80;;;13.10;92.30;;;;;;12792602;23;20172;-81
2023/05/08 08:01:06;;;;;;;4.77;3.57;;;13.40;96.80;;;;;;12765319;23;20234;-81
2023/05/08 08:06:09;;;;;;;4.13;3.30;;;13.60;92.70;;;;;;12791118;23;20511;-81
2023/05/08 08:11:12;;;;;;;11.33;3.13;;;13.80;96.00;;;;;;12762220;23;20676;-81
2023/05/08 08:16:14;;;;;;;3.43;3.13;;;14.00;93.80;;;;;;12763526;23;20784;-81
2023/05/08 08:21:17;;;;;;;4.03;2.97;;;14.10;92.50;;;;;;12788995;23;20207;-81
2023/05/08 08:26:19;;;;;;;3.63;3.00;;;14.30;95.80;;;;;;12790747;23;20168;-81
2023/05/08 08:31:22;;;;;;;4.13;3.73;;;14.20;81.40;;;;;;12764393;23;20198;-81
2023/05/08 08:36:25;;;;;;;5.43;3.77;;;14.10;85.40;;;;;;12764538;23;20172;-81
2023/05/08 08:41:28;;;;;;;3.77;2.83;;;14.20;71.80;;;;;;12788641;23;20597;-81
2023/05/08 08:46:34;;;;;;;4.43;4.03;;;;;;;;;;12786803;23;20176;-80
2023/05/08 08:51:49;;;;;;;5.13;3.63;;;14.60;86.30;;;;;;12780785;23;20172;-82
2023/05/08 08:56:54;;;;;;;3.13;2.83;;;14.50;85.50;;;;;;12763386;23;20187;-81
2023/05/08 09:02:04;;;;;;;6.37;4.13;;;14.60;87.30;;;;;;12788692;23;20592;-81
2023/05/08 09:07:07;;;;;;;8.83;4.23;;;14.70;79.00;;;;;;12762751;23;20234;-81
2023/05/08 09:12:13;;;;;;;4.63;3.73;;;14.80;77.40;;;;;;12788664;23;20686;-80
2023/05/08 09:17:15;;;;;;;3.60;3.30;;;14.90;76.90;;;;;;12764086;23;20172;-80
2023/05/08 09:22:20;;;;;;;3.50;2.87;;;14.90;76.40;;;;;;12789811;23;20200;-80
2023/05/08 09:27:24;;;;;;;5.80;2.93;;;15.00;73.60;;;;;;12764131;23;20555;-81
2023/05/08 09:32:28;;;;;;;5.90;3.33;;;15.00;69.40;;;;;;12787935;23;20517;-81
2023/05/08 09:37:31;;;;;;;3.17;2.53;;;15.10;68.40;;;;;;12763946;23;20170;-80
2023/05/08 09:42:40;;;;;;;4.10;3.33;;;;;;;;;;12790154;23;20566;-80
2023/05/08 09:47:47;;;;;;;3.60;2.80;;;;;;;;;;12789944;23;20163;-81
2023/05/08 09:52:50;;;;;;;5.47;3.83;;;;;;;;;;12789127;23;20188;-81
2023/05/08 09:57:53;;;;;;;10.67;4.43;;;;;;;;;;12806301;23;20226;-81
2023/05/08 10:02:57;;;;;;;3.67;3.33;;;;;;;;;;12788808;23;20203;-81
2023/05/08 10:08:22;;;;;;;4.27;3.20;;;15.40;62.90;;;;;;12787107;23;20218;-80
2023/05/08 10:13:24;;;;;;;5.00;3.83;;;15.30;58.20;;;;;;12806114;23;20168;-81
2023/05/08 10:18:34;;;;;;;3.00;2.70;;;15.40;65.00;;;;;;12789310;23;20579;-81
2023/05/08 10:23:41;;;;;;;6.63;4.33;;;15.30;53.60;;;;;;12788426;23;20243;-81
2023/05/08 10:29:07;;;;;;;6.60;4.63;;;15.30;57.70;;;;;;12789837;23;20171;-82
2023/05/08 10:34:16;;;;;;;4.17;2.73;;;15.30;43.60;;;;;;12805881;23;20226;-82
2023/05/08 10:39:19;;;;;;;2.87;2.30;;;15.40;59.30;;;;;;12801269;23;20498;-81
2023/05/08 10:44:23;;;;;;;5.83;4.00;;;15.50;64.10;;;;;;12780930;23;20164;-81
2023/05/08 10:49:50;;;;;;;3.90;3.43;;;15.50;50.60;;;;;;12792081;23;20711;-81
2023/05/08 10:54:53;;;;;;;3.93;2.87;;;15.60;52.70;;;;;;12765730;23;20195;-82
2023/05/08 10:59:55;;;;;;;4.57;3.63;;;15.60;53.70;;;;;;12766529;23;20192;-81
2023/05/08 11:05:17;;;;;;;6.33;3.10;;;15.70;55.30;;;;;;12766446;23;20187;-82
2023/05/08 11:10:19;;;;;;;2.57;2.27;;;15.70;58.80;;;;;;12792661;23;20274;-81
2023/05/08 11:15:39;;;;;;;3.30;2.50;;;15.70;64.30;;;;;;12793631;23;20172;-81
2023/05/08 11:20:56;;;;;;;4.33;3.27;;;15.70;52.70;;;;;;12791579;23;20207;-81
2023/05/08 11:26:04;;;;;;;5.23;3.33;;;15.70;60.90;;;;;;12797519;23;20282;-82
2023/05/08 11:31:07;;;;;;;3.00;2.50;;;15.70;51.20;;;;;;12792175;23;20183;-82
2023/05/08 11:36:19;;;;;;;4.43;3.37;;;15.80;61.90;;;;;;12766382;23;20168;-81
2023/05/08 11:41:23;;;;;;;4.43;3.70;;;15.70;49.50;;;;;;12763804;23;20258;-81
2023/05/08 11:46:39;;;;;;;7.93;3.80;;;15.70;47.60;;;;;;12791493;23;20515;-82
2023/05/08 11:51:53;;;;;;;4.00;2.80;;;15.80;51.00;;;;;;12765828;23;20179;-81
2023/05/08 11:56:56;;;;;;;3.50;3.13;;;15.80;55.60;;;;;;12792608;23;20172;-81
2023/05/08 12:01:58;;;;;;;8.17;4.17;;;15.80;50.20;;;;;;12808595;23;20852;-81
2023/05/08 12:07:10;;;;;;;4.03;3.10;;;15.90;54.60;;;;;;12790651;23;20207;-82
2023/05/08 12:12:13;;;;;;;3.00;2.70;;;15.90;52.20;;;;;;12791347;23;20250;-82
2023/05/08 12:17:18;;;;;;;2.33;1.90;;;15.90;55.30;;;;;;12791042;23;20172;-82
2023/05/08 12:22:21;;;;;;;6.63;3.07;;;16.00;61.20;;;;;;12789571;23;20600;-82
2023/05/08 12:27:24;;;;;;;5.37;4.07;;;16.00;51.80;;;;;;12782400;23;20214;-81
2023/05/08 12:32:26;;;;;;;6.57;2.70;;;16.00;47.90;;;;;;12791004;23;20234;-82
2023/05/08 12:37:30;;;;;;;6.60;3.37;;;16.00;49.90;;;;;;12791482;23;20168;-82
2023/05/08 12:42:42;;;;;;;11.10;3.60;;;16.00;46.40;;;;;;12790265;23;20204;-82
2023/05/08 12:47:49;;;;;;;3.20;2.90;;;16.00;53.80;;;;;;12792009;23;20280;-82
2023/05/08 12:52:52;;;;;;;9.77;4.17;;;16.00;49.00;;;;;;12792479;23;20198;-82
2023/05/08 12:58:13;;;;;;;3.47;2.93;;;16.00;54.10;;;;;;12792880;23;20171;-82
2023/05/08 13:03:25;;;;;;;4.30;3.40;;;15.90;33.50;;;;;;12810335;23;20223;-82
2023/05/08 13:08:32;;;;;;;4.97;2.63;;;15.90;40.40;;;;;;12789819;23;20183;-82
2023/05/08 13:13:35;;;;;;;4.60;3.63;;;16.00;51.10;;;;;;12809442;23;20172;-82
2023/05/08 13:18:38;;;;;;;3.93;3.30;;;15.90;36.10;;;;;;12763788;23;20718;-82
2023/05/08 13:23:42;;;;;;;2.87;2.33;;;15.90;43.30;;;;;;12790085;23;20621;-82
2023/05/08 13:28:44;;;;;;;3.93;2.43;;;16.00;48.80;;;;;;12764990;23;20180;-82
2023/05/08 13:33:47;;;;;;;4.83;2.33;;;16.10;49.80;;;;;;12790758;23;20172;-82
2023/05/08 13:38:55;;;;;;;5.40;3.63;;;16.00;45.80;;;;;;12790451;23;20248;-82
2023/05/08 13:44:09;;;;;;;2.73;2.47;;;16.10;42.50;;;;;;10485550;28;20544;-85
2023/05/08 13:49:12;;;;;;;7.83;3.57;;;16.20;43.60;;;;;;10501619;28;20306;-83
2023/05/08 13:54:14;;;;;;;6.43;2.50;;;16.10;42.20;;;;;;10524522;28;20229;-84
2023/05/08 13:59:17;;;;;;;3.43;2.87;;;16.10;43.80;;;;;;10507245;28;20222;-84
2023/05/08 14:04:19;;;;;;;3.30;3.00;;;16.20;37.10;;;;;;10502009;28;20229;-82
2023/05/08 14:09:22;;;;;;;2.50;2.30;;;16.30;55.30;;;;;;10507327;28;20724;-82
2023/05/08 14:14:24;;;;;;;3.57;2.87;;;16.20;49.50;;;;;;10516060;28;20287;-83
2023/05/08 14:19:27;;;;;;;4.37;2.33;;;16.10;40.10;;;;;;10481796;28;20256;-81
2023/05/08 14:24:29;;;;;;;2.30;2.10;;;16.10;39.40;;;;;;10481192;28;20238;-80
2023/05/08 14:29:33;;;;;;;3.20;2.50;;;16.20;45.70;;;;;;10500213;28;20690;-81
2023/05/08 14:34:35;;;;;;;4.63;2.47;;;16.30;43.70;;;;;;10480835;28;20734;-81
2023/05/08 14:39:38;;;;;;;8.23;3.70;;;16.30;42.10;;;;;;10477453;28;20726;-82
2023/05/08 14:44:40;;;;;;;2.90;2.30;;;16.30;40.00;;;;;;10478135;28;20222;-82
2023/05/08 14:49:43;;;;;;;3.93;2.90;;;16.30;33.30;;;;;;10479813;28;20289;-81
2023/05/08 14:54:51;;;;;;;6.30;3.90;;;16.20;38.20;;;;;;10453250;28;20675;-83
2023/05/08 14:59:55;;;;;;;9.83;3.40;;;16.20;36.20;;;;;;10450256;28;20301;-83
2023/05/08 15:04:58;;;;;;;3.97;3.57;;;16.20;37.70;;;;;;10446640;28;20280;-83
2023/05/08 15:10:02;;;;;;;3.93;2.30;;;16.10;28.60;;;;;;10451147;28;20226;-83
2023/05/08 15:15:05;;;;;;;2.17;1.97;;;16.10;41.30;;;;;;10451654;28;20997;-81
2023/05/08 15:20:08;;;;;;;4.37;2.90;;;16.20;38.30;;;;;;10449754;28;20247;-84
2023/05/08 15:25:24;;;;;;;3.93;2.70;;;16.10;36.60;;;;;;10447894;28;20980;-83
2023/05/08 15:30:55;;;;;;;2.80;2.20;;;16.10;37.50;;;;;;10450986;28;20253;-84
2023/05/08 15:35:57;;;;;;;2.43;2.20;;;16.10;42.10;;;;;;10450480;28;20677;-84
2023/05/08 15:41:00;;;;;;;4.43;2.87;;;16.20;50.90;;;;;;10454005;28;20641;-84
2023/05/08 15:46:02;;;;;;;3.20;2.70;;;16.10;30.50;;;;;;10452675;28;20276;-84
2023/05/08 15:51:05;;;;;;;2.20;1.93;;;16.00;39.50;;;;;;10453469;28;20260;-82
2023/05/08 15:56:07;;;;;;;4.33;2.40;;;16.00;51.00;;;;;;10487266;28;20300;-82
2023/05/08 16:01:10;;;;;;;3.50;2.70;;;16.00;50.00;;;;;;10491918;28;20254;-85
2023/05/08 16:06:13;;;;;;;6.27;2.83;;;15.90;46.70;;;;;;10492513;28;20320;-82
2023/05/08 16:11:15;;;;;;;3.40;1.83;;;16.00;44.70;;;;;;10489746;28;20223;-81
2023/05/08 16:16:17;;;;;;;4.00;3.60;;;15.80;42.20;;;;;;10452270;28;20299;-82
2023/05/08 16:21:20;;;;;;;3.17;2.87;;;15.80;41.70;;;;;;10452917;28;20299;-82
2023/05/08 16:26:25;;;;;;;4.47;3.10;;;15.80;46.80;;;;;;10418451;28;20773;-82
2023/05/08 16:31:27;;;;;;;3.17;2.73;;;16.00;38.90;;;;;;10450002;28;20234;-82
2023/05/08 16:36:30;;;;;;;4.10;3.07;;;16.10;36.20;;;;;;10450073;28;20763;-82
2023/05/08 16:41:33;;;;;;;5.40;2.43;;;16.10;34.20;;;;;;10451752;28;20675;-82
2023/05/08 16:46:35;;;;;;;3.27;2.83;;;16.10;34.70;;;;;;10450538;28;20623;-82
2023/05/08 16:51:38;;;;;;;4.07;2.40;;;16.10;34.90;;;;;;10450491;28;20227;-82
2023/05/08 16:56:40;;;;;;;4.17;3.10;;;16.20;35.80;;;;;;10449508;28;20276;-82
2023/05/08 17:01:43;;;;;;;3.37;3.07;;;16.10;35.90;;;;;;10450444;28;20254;-82
2023/05/08 17:06:46;;;;;;;2.70;2.47;;;16.00;31.70;;;;;;10448334;28;20199;-82
2023/05/08 17:11:48;;;;;;;4.67;2.90;;;15.90;35.50;;;;;;10448019;28;20208;-81
2023/05/08 17:16:50;;;;;;;6.83;3.47;;;15.70;33.80;;;;;;10449478;28;20224;-81
2023/05/08 17:21:53;;;;;;;3.90;3.00;;;15.60;32.00;;;;;;10452235;28;20279;-80
2023/05/08 17:26:55;;;;;;;4.37;2.77;;;15.40;33.80;;;;;;10486966;28;20217;-81
2023/05/08 17:31:58;;;;;;;3.73;3.33;;;15.10;34.80;;;;;;10466199;28;20274;-81
2023/05/08 17:37:00;;;;;;;6.30;2.97;;;15.00;38.90;;;;;;10472807;28;20234;-81
2023/05/08 17:42:03;;;;;;;4.33;3.67;;;14.60;37.70;;;;;;10488463;28;20704;-81
2023/05/08 17:47:05;;;;;;;9.67;3.67;;;14.40;40.20;;;;;;10459114;28;20262;-83
2023/05/08 17:52:08;;;;;;;6.20;3.60;;;14.20;42.10;;;;;;10453048;28;20287;-82
2023/05/08 17:57:11;;;;;;;3.63;3.33;;;13.90;43.60;;;;;;10462536;28;20230;-82
2023/05/08 18:02:13;;;;;;;7.23;3.37;;;13.50;44.20;;;;;;10483549;28;20266;-82
2023/05/08 18:07:16;;;;;;;4.03;2.77;;;13.40;47.10;;;;;;10442257;28;20235;-82
2023/05/08 18:12:19;;;;;;;4.67;4.20;;;13.20;53.00;;;;;;10441043;28;20238;-81
2023/05/08 18:17:21;;;;;;;5.10;3.97;;;13.10;53.10;;;;;;10442055;28;20276;-82
2023/05/08 18:22:25;;;;;;;3.37;3.07;;;;;;;;;;10443990;28;20258;-81
2023/05/08 18:27:27;;;;;;;4.00;3.60;;;12.50;58.70;;;;;;10443498;28;20239;-82
2023/05/08 18:32:30;;;;;;;5.90;3.83;;;12.20;59.00;;;;;;10453691;28;20231;-82
2023/05/08 18:37:33;;;;;;;5.43;3.83;;;11.90;61.00;;;;;;10450778;28;20743;-81
2023/05/08 18:42:36;;;;;;;6.57;3.47;;;11.70;64.80;;;;;;10449260;28;20259;-82
2023/05/08 18:47:38;;;;;;;5.77;4.30;;;11.40;68.80;;;;;;10450624;28;20230;-81
2023/05/08 18:52:41;;;;;;;4.07;3.37;;;11.30;74.00;;;;;;10451937;28;20249;-81
2023/05/08 18:57:43;;;;;;;4.57;4.03;;;11.20;83.10;;;;;;10453967;28;20239;-80
2023/05/08 19:02:46;;;;;;;3.83;3.47;;;11.00;84.90;;;;;;10482808;28;20323;-80
2023/05/08 19:07:48;;;;;;;4.20;3.77;;;10.80;88.30;;;;;;10454019;28;20227;-81
2023/05/08 19:12:51;;;;;;;3.63;3.27;;;10.70;90.00;;;;;;10454798;28;20235;-80
2023/05/08 19:17:54;;;;;;;6.20;3.60;;;10.40;91.20;;;;;;10472725;28;20638;-81
2023/05/08 19:22:56;;;;;;;6.03;4.73;;;10.10;92.50;;;;;;10426216;28;21137;-80
2023/05/08 19:27:59;;;;;;;6.73;5.50;;;9.90;94.50;;;;;;10426861;28;20231;-80
2023/05/08 19:33:01;;;;;;;7.93;5.93;;;9.70;95.90;;;;;;10451494;28;20289;-83
2023/05/08 19:38:04;;;;;;;11.83;8.70;;;9.40;96.60;;;;;;10458338;28;20230;-80
2023/05/08 19:43:06;;;;;;;16.00;10.97;;;9.50;97.40;;;;;;10483007;28;20319;-80
2023/05/08 19:48:09;;;;;;;14.57;9.83;;;9.40;97.50;;;;;;10464569;28;20289;-80
2023/05/08 19:53:19;;;;;;;19.37;12.07;;;9.20;98.50;;;;;;10471053;28;20246;-82
2023/05/08 19:58:21;;;;;;;16.23;10.33;;;8.60;99.70;;;;;;10440420;28;20881;-84
2023/05/08 20:03:25;;;;;;;17.20;10.87;;;8.20;99.90;;;;;;10445086;28;20700;-81
2023/05/08 20:08:28;;;;;;;44.97;17.53;;;8.10;99.90;;;;;;10420921;28;20231;-83
2023/05/08 20:13:30;;;;;;;32.03;14.77;;;7.90;99.90;;;;;;10449490;28;20226;-79
2023/05/08 20:18:34;;;;;;;17.10;10.50;;;7.60;99.90;;;;;;10462881;28;20255;-86
2023/05/08 20:23:38;;;;;;;19.80;11.43;;;7.30;99.90;;;;;;10408438;28;20246;-85
2023/05/08 20:28:41;;;;;;;19.63;12.03;;;7.10;99.90;;;;;;10402385;28;20227;-82
2023/05/08 20:33:43;;;;;;;15.80;10.57;;;6.90;99.90;;;;;;10400354;28;20281;-82
2023/05/08 20:38:46;;;;;;;17.90;12.10;;;6.70;99.90;;;;;;10395137;28;20309;-81
2023/05/08 20:43:48;;;;;;;23.67;13.40;;;6.60;99.90;;;;;;10403927;28;20323;-81
2023/05/08 20:48:51;;;;;;;22.07;14.10;;;6.40;99.90;;;;;;10387665;28;20250;-81
2023/05/08 20:53:53;;;;;;;25.03;13.90;;;6.20;99.90;;;;;;10388960;28;20234;-80
2023/05/08 20:58:56;;;;;;;23.63;14.77;;;;;;;;;;10409456;28;20333;-80
2023/05/08 21:03:58;;;;;;;22.07;14.67;;;6.00;99.90;;;;;;10402077;28;20254;-80
2023/05/08 21:09:01;;;;;;;25.63;13.43;;;5.90;99.90;;;;;;10398587;28;20295;-82
2023/05/08 21:14:07;;;;;;;19.00;12.93;;;6.00;99.90;;;;;;10404875;28;20683;-82
2023/05/08 21:19:12;;;;;;;9.97;6.97;;;6.20;99.90;;;;;;10408135;28;20227;-81
2023/05/08 21:24:15;;;;;;;16.07;9.37;;;6.50;99.90;;;;;;10405510;28;20259;-81
2023/05/08 21:29:18;;;;;;;16.33;10.13;;;6.70;99.90;;;;;;10405637;28;20630;-82
2023/05/08 21:34:20;;;;;;;18.37;10.53;;;6.70;99.90;;;;;;10407176;28;20235;-81
2023/05/08 21:39:23;;;;;;;10.77;7.40;;;6.70;99.90;;;;;;10405989;28;20243;-82
2023/05/08 21:44:25;;;;;;;15.63;9.73;;;6.70;99.90;;;;;;10405344;28;20255;-81
2023/05/08 21:49:28;;;;;;;14.40;10.70;;;6.70;99.90;;;;;;10417811;28;20242;-81
2023/05/08 21:54:30;;;;;;;18.57;12.23;;;6.70;99.90;;;;;;10439819;28;20238;-82
2023/05/08 21:59:33;;;;;;;22.30;13.47;;;6.60;99.90;;;;;;10405760;28;20242;-82
2023/05/08 22:04:35;;;;;;;25.60;14.57;;;6.40;99.90;;;;;;10403682;28;20255;-82
2023/05/08 22:09:38;;;;;;;28.83;17.33;;;6.30;99.90;;;;;;10415527;28;20242;-82
2023/05/08 22:14:40;;;;;;;40.03;20.80;;;6.00;99.90;;;;;;10420749;28;20617;-80
2023/05/08 22:19:43;;;;;;;39.00;21.43;;;;;;;;;;10420687;28;20222;-80
2023/05/08 22:24:46;;;;;;;40.87;22.87;;;5.70;99.90;;;;;;10456663;28;20335;-83
2023/05/08 22:29:48;;;;;;;34.07;20.33;;;5.60;99.90;;;;;;10454703;28;20284;-81
2023/05/08 22:34:51;;;;;;;35.20;19.93;;;5.40;99.90;;;;;;10455022;28;20248;-81
2023/05/08 22:39:53;;;;;;;25.57;18.93;;;5.30;99.90;;;;;;10452220;28;20265;-81
2023/05/08 22:44:56;;;;;;;31.00;19.27;;;5.10;99.90;;;;;;10413391;28;20319;-81
2023/05/08 22:49:58;;;;;;;33.33;20.40;;;5.00;99.90;;;;;;10416569;28;20223;-82
2023/05/08 22:55:01;;;;;;;27.57;18.20;;;4.90;99.90;;;;;;10412860;28;20221;-82
2023/05/08 23:00:06;;;;;;;22.73;15.43;;;4.90;99.90;;;;;;10414409;28;20206;-82
2023/05/08 23:05:09;;;;;;;20.40;12.87;;;;;;;;;;10414043;28;20247;-82
2023/05/08 23:10:13;;;;;;;15.03;11.57;;;4.70;99.90;;;;;;10398852;28;20243;-82
2023/05/08 23:15:15;;;;;;;13.80;11.97;;;4.80;99.90;;;;;;10374355;28;20247;-81
2023/05/08 23:20:18;;;;;;;13.77;11.23;;;4.50;99.90;;;;;;10411708;28;20238;-82
2023/05/08 23:25:21;;;;;;;18.10;10.97;;;4.60;99.90;;;;;;10446011;28;20256;-82
2023/05/08 23:30:23;;;;;;;14.83;10.93;;;4.40;99.90;;;;;;10454673;28;20226;-82
2023/05/08 23:35:27;;;;;;;6.47;5.60;;;4.30;99.90;;;;;;10454432;28;20251;-82
2023/05/08 23:40:29;;;;;;;11.00;8.13;;;4.40;99.90;;;;;;10451500;28;20321;-82
2023/05/08 23:45:32;;;;;;;18.57;12.13;;;4.40;99.90;;;;;;10444875;28;20226;-82
2023/05/08 23:50:34;;;;;;;22.47;14.10;;;4.40;99.90;;;;;;10412535;28;20226;-81
2023/05/08 23:55:37;;;;;;;27.50;15.53;;;4.20;99.90;;;;;;10412525;28;20309;-82
